Terminal Aerodrome Forecast
Issued by NWS

Home | Current Version | Previous Version | Text Only | Print | Product List | Glossary On
Versions: 1 2 3 4 5 6 7 8 9 10 11 12 13 14 15 16 17
000
FTUS42 KGSP 311400 AAC
TAFAND
TAF AMD
KAND 311448Z 3115/0112 05005KT P6SM -SHRA SCT005 BKN045
      TEMPO 3115/3117 VRB07KT 5SM -SHRA BR BKN005 OVC040
     FM311700 07006KT P6SM VCTS BKN050CB
     FM010300 08008KT P6SM VCSH OVC017
     FM010800 06005KT 4SM -SHRA BR OVC017=

USA.gov is the U.S. government's official web portal to all federal, state and local government web resources and services.